sensor_id;sensor_type;location;lat;lon;timestamp;P1;durP1;ratioP1;P2;durP2;ratioP2
76439;SDS011;65274;44.982;20.060;2023-07-31T00:01:27;1.75;;;1.65;;
76439;SDS011;65274;44.982;20.060;2023-07-31T00:03:53;1.70;;;1.60;;
76439;SDS011;65274;44.982;20.060;2023-07-31T00:06:26;2.00;;;1.80;;
76439;SDS011;65274;44.982;20.060;2023-07-31T00:08:59;1.65;;;1.55;;
76439;SDS011;65274;44.982;20.060;2023-07-31T00:11:25;1.88;;;1.70;;
76439;SDS011;65274;44.982;20.060;2023-07-31T00:13:52;1.38;;;1.27;;
76439;SDS011;65274;44.982;20.060;2023-07-31T00:16:18;1.73;;;1.60;;
76439;SDS011;65274;44.982;20.060;2023-07-31T00:18:45;2.25;;;2.00;;
76439;SDS011;65274;44.982;20.060;2023-07-31T00:21:11;2.05;;;1.45;;
76439;SDS011;65274;44.982;20.060;2023-07-31T00:23:37;1.80;;;1.67;;
76439;SDS011;65274;44.982;20.060;2023-07-31T00:26:03;2.75;;;1.67;;
76439;SDS011;65274;44.982;20.060;2023-07-31T00:28:29;1.65;;;1.55;;
76439;SDS011;65274;44.982;20.060;2023-07-31T00:30:55;1.92;;;1.73;;
76439;SDS011;65274;44.982;20.060;2023-07-31T00:33:21;3.78;;;2.95;;
76439;SDS011;65274;44.982;20.060;2023-07-31T00:35:48;2.60;;;2.40;;
76439;SDS011;65274;44.982;20.060;2023-07-31T00:38:14;2.53;;;2.03;;
76439;SDS011;65274;44.982;20.060;2023-07-31T00:40:40;1.98;;;1.80;;
76439;SDS011;65274;44.982;20.060;2023-07-31T00:43:06;1.90;;;1.67;;
76439;SDS011;65274;44.982;20.060;2023-07-31T00:45:32;1.55;;;1.45;;
76439;SDS011;65274;44.982;20.060;2023-07-31T00:47:58;1.50;;;1.40;;
76439;SDS011;65274;44.982;20.060;2023-07-31T00:50:25;1.95;;;1.75;;
76439;SDS011;65274;44.982;20.060;2023-07-31T00:52:51;2.22;;;1.60;;
76439;SDS011;65274;44.982;20.060;2023-07-31T00:55:18;2.58;;;2.38;;
76439;SDS011;65274;44.982;20.060;2023-07-31T01:00:38;2.22;;;2.08;;
76439;SDS011;65274;44.982;20.060;2023-07-31T01:03:04;2.40;;;2.20;;
76439;SDS011;65274;44.982;20.060;2023-07-31T01:11:28;2.65;;;2.45;;
76439;SDS011;65274;44.982;20.060;2023-07-31T01:14:13;2.90;;;2.70;;
76439;SDS011;65274;44.982;20.060;2023-07-31T01:16:57;2.65;;;2.45;;
76439;SDS011;65274;44.982;20.060;2023-07-31T01:19:42;2.65;;;2.45;;
76439;SDS011;65274;44.982;20.060;2023-07-31T01:22:30;3.40;;;3.10;;
76439;SDS011;65274;44.982;20.060;2023-07-31T01:31:29;3.17;;;2.95;;
76439;SDS011;65274;44.982;20.060;2023-07-31T01:33:56;3.33;;;3.03;;
76439;SDS011;65274;44.982;20.060;2023-07-31T01:36:42;3.08;;;2.78;;
76439;SDS011;65274;44.982;20.060;2023-07-31T01:39:08;3.42;;;2.92;;
76439;SDS011;65274;44.982;20.060;2023-07-31T01:41:34;2.33;;;2.15;;
76439;SDS011;65274;44.982;20.060;2023-07-31T01:44:19;3.22;;;2.92;;
76439;SDS011;65274;44.982;20.060;2023-07-31T01:46:45;2.80;;;2.25;;
76439;SDS011;65274;44.982;20.060;2023-07-31T01:49:11;3.08;;;2.78;;
76439;SDS011;65274;44.982;20.060;2023-07-31T01:51:37;2.90;;;2.65;;
76439;SDS011;65274;44.982;20.060;2023-07-31T01:54:03;3.22;;;2.92;;
76439;SDS011;65274;44.982;20.060;2023-07-31T01:59:52;3.38;;;2.92;;
76439;SDS011;65274;44.982;20.060;2023-07-31T02:02:19;2.50;;;2.30;;
76439;SDS011;65274;44.982;20.060;2023-07-31T02:04:45;2.03;;;1.92;;
76439;SDS011;65274;44.982;20.060;2023-07-31T02:07:11;2.03;;;1.92;;
76439;SDS011;65274;44.982;20.060;2023-07-31T02:09:58;4.25;;;2.92;;
76439;SDS011;65274;44.982;20.060;2023-07-31T02:12:25;3.97;;;3.58;;
76439;SDS011;65274;44.982;20.060;2023-07-31T02:15:19;4.10;;;3.08;;
76439;SDS011;65274;44.982;20.060;2023-07-31T02:17:46;2.63;;;2.42;;
76439;SDS011;65274;44.982;20.060;2023-07-31T02:20:33;2.20;;;2.00;;
76439;SDS011;65274;44.982;20.060;2023-07-31T02:22:59;1.98;;;1.88;;
76439;SDS011;65274;44.982;20.060;2023-07-31T02:25:44;2.15;;;1.95;;
76439;SDS011;65274;44.982;20.060;2023-07-31T02:28:10;3.03;;;2.80;;
76439;SDS011;65274;44.982;20.060;2023-07-31T02:30:37;1.90;;;1.80;;
76439;SDS011;65274;44.982;20.060;2023-07-31T02:33:04;2.67;;;2.47;;
76439;SDS011;65274;44.982;20.060;2023-07-31T02:35:30;2.63;;;2.42;;
76439;SDS011;65274;44.982;20.060;2023-07-31T02:37:56;2.50;;;2.30;;
76439;SDS011;65274;44.982;20.060;2023-07-31T02:40:23;2.42;;;2.22;;
76439;SDS011;65274;44.982;20.060;2023-07-31T02:42:49;2.67;;;2.47;;
76439;SDS011;65274;44.982;20.060;2023-07-31T02:45:15;1.67;;;1.58;;
76439;SDS011;65274;44.982;20.060;2023-07-31T02:47:41;1.95;;;1.73;;
76439;SDS011;65274;44.982;20.060;2023-07-31T02:50:08;2.20;;;2.10;;
76439;SDS011;65274;44.982;20.060;2023-07-31T02:52:34;1.50;;;1.40;;
76439;SDS011;65274;44.982;20.060;2023-07-31T02:55:00;1.95;;;1.85;;
76439;SDS011;65274;44.982;20.060;2023-07-31T02:57:26;3.38;;;3.08;;
76439;SDS011;65274;44.982;20.060;2023-07-31T02:59:52;2.75;;;2.55;;
76439;SDS011;65274;44.982;20.060;2023-07-31T03:02:18;2.45;;;2.25;;
76439;SDS011;65274;44.982;20.060;2023-07-31T03:04:44;1.92;;;1.83;;
76439;SDS011;65274;44.982;20.060;2023-07-31T03:07:10;1.50;;;1.38;;
76439;SDS011;65274;44.982;20.060;2023-07-31T03:09:36;1.88;;;1.77;;
76439;SDS011;65274;44.982;20.060;2023-07-31T03:12:03;1.45;;;1.35;;
76439;SDS011;65274;44.982;20.060;2023-07-31T03:14:47;1.58;;;1.48;;
76439;SDS011;65274;44.982;20.060;2023-07-31T03:17:14;1.45;;;1.35;;
76439;SDS011;65274;44.982;20.060;2023-07-31T03:19:40;1.77;;;1.67;;
76439;SDS011;65274;44.982;20.060;2023-07-31T03:22:06;2.15;;;1.95;;
76439;SDS011;65274;44.982;20.060;2023-07-31T03:24:33;2.70;;;2.17;;
76439;SDS011;65274;44.982;20.060;2023-07-31T03:26:59;2.17;;;1.98;;
76439;SDS011;65274;44.982;20.060;2023-07-31T03:29:25;2.97;;;2.70;;
76439;SDS011;65274;44.982;20.060;2023-07-31T03:31:51;2.42;;;2.22;;
76439;SDS011;65274;44.982;20.060;2023-07-31T03:34:17;2.03;;;1.92;;
76439;SDS011;65274;44.982;20.060;2023-07-31T03:36:43;2.58;;;2.38;;
76439;SDS011;65274;44.982;20.060;2023-07-31T03:39:09;1.73;;;1.63;;
76439;SDS011;65274;44.982;20.060;2023-07-31T03:41:54;1.88;;;1.77;;
76439;SDS011;65274;44.982;20.060;2023-07-31T03:44:20;1.67;;;1.58;;
76439;SDS011;65274;44.982;20.060;2023-07-31T03:46:46;3.58;;;2.00;;
76439;SDS011;65274;44.982;20.060;2023-07-31T03:49:12;2.63;;;2.42;;
76439;SDS011;65274;44.982;20.060;2023-07-31T03:51:57;1.98;;;1.67;;
76439;SDS011;65274;44.982;20.060;2023-07-31T03:54:23;2.40;;;2.20;;
76439;SDS011;65274;44.982;20.060;2023-07-31T03:56:49;1.55;;;1.45;;
76439;SDS011;65274;44.982;20.060;2023-07-31T03:59:15;1.70;;;1.60;;
76439;SDS011;65274;44.982;20.060;2023-07-31T04:01:41;2.42;;;2.22;;
76439;SDS011;65274;44.982;20.060;2023-07-31T04:04:07;1.98;;;1.88;;
76439;SDS011;65274;44.982;20.060;2023-07-31T04:06:33;1.88;;;1.77;;
76439;SDS011;65274;44.982;20.060;2023-07-31T04:08:59;1.88;;;1.77;;
76439;SDS011;65274;44.982;20.060;2023-07-31T04:11:25;2.13;;;1.90;;
76439;SDS011;65274;44.982;20.060;2023-07-31T04:13:51;1.60;;;1.50;;
76439;SDS011;65274;44.982;20.060;2023-07-31T04:16:17;1.65;;;1.55;;
76439;SDS011;65274;44.982;20.060;2023-07-31T04:18:43;1.60;;;1.50;;
76439;SDS011;65274;44.982;20.060;2023-07-31T04:21:09;1.90;;;1.80;;
76439;SDS011;65274;44.982;20.060;2023-07-31T04:23:35;2.20;;;2.10;;
76439;SDS011;65274;44.982;20.060;2023-07-31T04:26:01;2.15;;;2.00;;
76439;SDS011;65274;44.982;20.060;2023-07-31T04:28:27;2.33;;;2.13;;
76439;SDS011;65274;44.982;20.060;2023-07-31T04:30:56;1.70;;;1.60;;
76439;SDS011;65274;44.982;20.060;2023-07-31T04:33:22;1.90;;;1.80;;
76439;SDS011;65274;44.982;20.060;2023-07-31T04:35:52;2.00;;;1.83;;
76439;SDS011;65274;44.982;20.060;2023-07-31T04:38:19;1.70;;;1.60;;
76439;SDS011;65274;44.982;20.060;2023-07-31T04:40:45;2.38;;;2.17;;
76439;SDS011;65274;44.982;20.060;2023-07-31T04:43:11;2.42;;;2.22;;
76439;SDS011;65274;44.982;20.060;2023-07-31T04:45:37;2.28;;;2.05;;
76439;SDS011;65274;44.982;20.060;2023-07-31T04:48:04;1.77;;;1.67;;
76439;SDS011;65274;44.982;20.060;2023-07-31T04:50:30;1.70;;;1.60;;
76439;SDS011;65274;44.982;20.060;2023-07-31T04:52:56;1.48;;;1.38;;
76439;SDS011;65274;44.982;20.060;2023-07-31T04:55:23;1.90;;;1.80;;
76439;SDS011;65274;44.982;20.060;2023-07-31T04:57:49;1.48;;;1.38;;
76439;SDS011;65274;44.982;20.060;2023-07-31T05:00:15;2.25;;;2.15;;
76439;SDS011;65274;44.982;20.060;2023-07-31T05:02:41;1.80;;;1.70;;
76439;SDS011;65274;44.982;20.060;2023-07-31T05:05:07;2.53;;;1.88;;
76439;SDS011;65274;44.982;20.060;2023-07-31T05:07:33;3.05;;;2.05;;
76439;SDS011;65274;44.982;20.060;2023-07-31T05:10:00;1.60;;;1.50;;
76439;SDS011;65274;44.982;20.060;2023-07-31T05:12:26;3.55;;;2.80;;
76439;SDS011;65274;44.982;20.060;2023-07-31T05:14:52;2.30;;;2.10;;
76439;SDS011;65274;44.982;20.060;2023-07-31T05:17:18;2.10;;;1.98;;
76439;SDS011;65274;44.982;20.060;2023-07-31T05:19:44;2.45;;;2.25;;
76439;SDS011;65274;44.982;20.060;2023-07-31T05:22:10;2.63;;;2.42;;
76439;SDS011;65274;44.982;20.060;2023-07-31T05:24:36;2.75;;;2.55;;
76439;SDS011;65274;44.982;20.060;2023-07-31T05:27:02;2.45;;;2.25;;
76439;SDS011;65274;44.982;20.060;2023-07-31T05:29:28;2.25;;;2.13;;
76439;SDS011;65274;44.982;20.060;2023-07-31T05:31:55;2.22;;;2.13;;
76439;SDS011;65274;44.982;20.060;2023-07-31T05:34:21;2.80;;;2.60;;
76439;SDS011;65274;44.982;20.060;2023-07-31T05:36:47;2.50;;;2.30;;
76439;SDS011;65274;44.982;20.060;2023-07-31T05:39:13;2.67;;;2.47;;
76439;SDS011;65274;44.982;20.060;2023-07-31T05:41:39;2.40;;;2.20;;
76439;SDS011;65274;44.982;20.060;2023-07-31T05:44:05;2.13;;;1.98;;
76439;SDS011;65274;44.982;20.060;2023-07-31T05:46:31;2.10;;;2.00;;
76439;SDS011;65274;44.982;20.060;2023-07-31T05:48:57;2.00;;;1.90;;
76439;SDS011;65274;44.982;20.060;2023-07-31T05:51:25;1.50;;;1.40;;
76439;SDS011;65274;44.982;20.060;2023-07-31T05:53:51;1.70;;;1.60;;
76439;SDS011;65274;44.982;20.060;2023-07-31T05:56:17;2.20;;;1.98;;
76439;SDS011;65274;44.982;20.060;2023-07-31T05:58:43;3.15;;;2.85;;
76439;SDS011;65274;44.982;20.060;2023-07-31T06:01:09;2.40;;;2.28;;
76439;SDS011;65274;44.982;20.060;2023-07-31T06:03:43;2.85;;;2.30;;
76439;SDS011;65274;44.982;20.060;2023-07-31T06:06:12;2.65;;;2.45;;
76439;SDS011;65274;44.982;20.060;2023-07-31T06:08:39;3.22;;;2.67;;
76439;SDS011;65274;44.982;20.060;2023-07-31T06:11:05;3.63;;;3.33;;
76439;SDS011;65274;44.982;20.060;2023-07-31T06:13:32;2.28;;;2.08;;
76439;SDS011;65274;44.982;20.060;2023-07-31T06:15:59;4.43;;;2.75;;
76439;SDS011;65274;44.982;20.060;2023-07-31T06:18:28;2.53;;;2.00;;
76439;SDS011;65274;44.982;20.060;2023-07-31T06:20:56;2.10;;;2.00;;
76439;SDS011;65274;44.982;20.060;2023-07-31T06:23:22;2.13;;;2.03;;
76439;SDS011;65274;44.982;20.060;2023-07-31T06:25:48;2.53;;;2.33;;
76439;SDS011;65274;44.982;20.060;2023-07-31T06:28:16;2.40;;;2.20;;
76439;SDS011;65274;44.982;20.060;2023-07-31T06:30:42;2.35;;;2.00;;
76439;SDS011;65274;44.982;20.060;2023-07-31T06:33:08;2.50;;;2.30;;
76439;SDS011;65274;44.982;20.060;2023-07-31T06:35:34;1.85;;;1.75;;
76439;SDS011;65274;44.982;20.060;2023-07-31T06:38:00;1.90;;;1.80;;
76439;SDS011;65274;44.982;20.060;2023-07-31T06:40:27;2.80;;;2.60;;
76439;SDS011;65274;44.982;20.060;2023-07-31T06:42:53;2.85;;;2.65;;
76439;SDS011;65274;44.982;20.060;2023-07-31T06:45:19;2.67;;;2.47;;
76439;SDS011;65274;44.982;20.060;2023-07-31T06:47:47;2.28;;;2.05;;
76439;SDS011;65274;44.982;20.060;2023-07-31T06:50:13;3.03;;;2.20;;
76439;SDS011;65274;44.982;20.060;2023-07-31T06:52:39;1.63;;;1.52;;
76439;SDS011;65274;44.982;20.060;2023-07-31T06:55:18;1.80;;;1.70;;
76439;SDS011;65274;44.982;20.060;2023-07-31T06:57:45;1.98;;;1.83;;
76439;SDS011;65274;44.982;20.060;2023-07-31T07:00:11;2.72;;;2.25;;
76439;SDS011;65274;44.982;20.060;2023-07-31T07:02:38;1.95;;;1.27;;
76439;SDS011;65274;44.982;20.060;2023-07-31T07:05:04;2.92;;;1.70;;
76439;SDS011;65274;44.982;20.060;2023-07-31T07:07:30;1.85;;;1.75;;
76439;SDS011;65274;44.982;20.060;2023-07-31T07:09:56;1.95;;;1.67;;
76439;SDS011;65274;44.982;20.060;2023-07-31T07:12:24;1.85;;;1.75;;
76439;SDS011;65274;44.982;20.060;2023-07-31T07:14:50;2.05;;;1.80;;
76439;SDS011;65274;44.982;20.060;2023-07-31T07:17:18;1.20;;;1.10;;
76439;SDS011;65274;44.982;20.060;2023-07-31T07:19:44;1.23;;;1.20;;
76439;SDS011;65274;44.982;20.060;2023-07-31T07:22:13;1.20;;;1.10;;
76439;SDS011;65274;44.982;20.060;2023-07-31T07:24:39;1.23;;;1.23;;
76439;SDS011;65274;44.982;20.060;2023-07-31T07:27:05;1.98;;;1.60;;
76439;SDS011;65274;44.982;20.060;2023-07-31T07:29:31;1.10;;;1.10;;
76439;SDS011;65274;44.982;20.060;2023-07-31T07:31:57;1.33;;;1.23;;
76439;SDS011;65274;44.982;20.060;2023-07-31T07:34:27;1.80;;;1.70;;
76439;SDS011;65274;44.982;20.060;2023-07-31T07:36:53;2.78;;;2.10;;
76439;SDS011;65274;44.982;20.060;2023-07-31T07:39:19;3.15;;;2.92;;
76439;SDS011;65274;44.982;20.060;2023-07-31T07:41:45;2.38;;;2.17;;
76439;SDS011;65274;44.982;20.060;2023-07-31T07:44:11;1.83;;;1.73;;
76439;SDS011;65274;44.982;20.060;2023-07-31T07:46:38;1.42;;;1.40;;
76439;SDS011;65274;44.982;20.060;2023-07-31T07:49:04;1.10;;;1.08;;
76439;SDS011;65274;44.982;20.060;2023-07-31T07:51:30;1.17;;;1.10;;
76439;SDS011;65274;44.982;20.060;2023-07-31T07:54:00;1.08;;;1.02;;
76439;SDS011;65274;44.982;20.060;2023-07-31T07:56:26;1.20;;;1.13;;
76439;SDS011;65274;44.982;20.060;2023-07-31T07:58:53;0.75;;;0.75;;
76439;SDS011;65274;44.982;20.060;2023-07-31T08:01:19;1.40;;;1.27;;
76439;SDS011;65274;44.982;20.060;2023-07-31T08:03:46;1.70;;;1.60;;
76439;SDS011;65274;44.982;20.060;2023-07-31T08:06:12;2.28;;;2.08;;
76439;SDS011;65274;44.982;20.060;2023-07-31T08:08:38;1.45;;;1.35;;
76439;SDS011;65274;44.982;20.060;2023-07-31T08:11:04;0.73;;;0.73;;
76439;SDS011;65274;44.982;20.060;2023-07-31T08:13:30;0.90;;;0.90;;
76439;SDS011;65274;44.982;20.060;2023-07-31T08:15:56;1.08;;;0.98;;
76439;SDS011;65274;44.982;20.060;2023-07-31T08:18:22;0.70;;;0.70;;
76439;SDS011;65274;44.982;20.060;2023-07-31T08:20:48;0.80;;;0.80;;
76439;SDS011;65274;44.982;20.060;2023-07-31T08:23:14;0.88;;;0.88;;
76439;SDS011;65274;44.982;20.060;2023-07-31T08:25:40;0.95;;;0.90;;
76439;SDS011;65274;44.982;20.060;2023-07-31T08:28:07;1.58;;;1.45;;
76439;SDS011;65274;44.982;20.060;2023-07-31T08:30:33;2.50;;;1.65;;
76439;SDS011;65274;44.982;20.060;2023-07-31T08:32:59;3.60;;;2.00;;
76439;SDS011;65274;44.982;20.060;2023-07-31T08:37:53;1.15;;;0.80;;
76439;SDS011;65274;44.982;20.060;2023-07-31T08:40:19;0.65;;;0.65;;
76439;SDS011;65274;44.982;20.060;2023-07-31T08:42:47;0.80;;;0.80;;
76439;SDS011;65274;44.982;20.060;2023-07-31T08:45:13;1.20;;;1.20;;
76439;SDS011;65274;44.982;20.060;2023-07-31T08:47:41;1.60;;;1.50;;
76439;SDS011;65274;44.982;20.060;2023-07-31T08:50:07;1.20;;;1.10;;
76439;SDS011;65274;44.982;20.060;2023-07-31T08:52:33;0.70;;;0.70;;
76439;SDS011;65274;44.982;20.060;2023-07-31T08:55:00;2.17;;;0.90;;
76439;SDS011;65274;44.982;20.060;2023-07-31T08:57:26;0.88;;;0.88;;
76439;SDS011;65274;44.982;20.060;2023-07-31T08:59:53;0.80;;;0.80;;
76439;SDS011;65274;44.982;20.060;2023-07-31T09:02:20;1.02;;;1.02;;
76439;SDS011;65274;44.982;20.060;2023-07-31T09:04:47;0.68;;;0.68;;
76439;SDS011;65274;44.982;20.060;2023-07-31T09:07:13;1.20;;;1.10;;
76439;SDS011;65274;44.982;20.060;2023-07-31T09:09:40;1.20;;;1.10;;
76439;SDS011;65274;44.982;20.060;2023-07-31T09:12:06;0.70;;;0.70;;
76439;SDS011;65274;44.982;20.060;2023-07-31T09:17:01;0.80;;;0.80;;
76439;SDS011;65274;44.982;20.060;2023-07-31T09:19:33;1.38;;;1.23;;
76439;SDS011;65274;44.982;20.060;2023-07-31T09:22:02;1.02;;;1.00;;
76439;SDS011;65274;44.982;20.060;2023-07-31T09:26:55;0.73;;;0.73;;
76439;SDS011;65274;44.982;20.060;2023-07-31T09:29:22;0.63;;;0.63;;
76439;SDS011;65274;44.982;20.060;2023-07-31T09:31:50;1.02;;;1.02;;
76439;SDS011;65274;44.982;20.060;2023-07-31T09:34:16;0.80;;;0.80;;
76439;SDS011;65274;44.982;20.060;2023-07-31T09:36:46;0.60;;;0.60;;
76439;SDS011;65274;44.982;20.060;2023-07-31T09:39:13;0.85;;;0.85;;
76439;SDS011;65274;44.982;20.060;2023-07-31T09:41:45;2.55;;;0.98;;
76439;SDS011;65274;44.982;20.060;2023-07-31T09:44:11;1.55;;;0.95;;
76439;SDS011;65274;44.982;20.060;2023-07-31T09:49:10;0.80;;;0.80;;
76439;SDS011;65274;44.982;20.060;2023-07-31T09:51:41;0.70;;;0.70;;
76439;SDS011;65274;44.982;20.060;2023-07-31T09:54:15;0.60;;;0.60;;
76439;SDS011;65274;44.982;20.060;2023-07-31T09:56:45;0.70;;;0.70;;
76439;SDS011;65274;44.982;20.060;2023-07-31T09:59:13;0.60;;;0.60;;
76439;SDS011;65274;44.982;20.060;2023-07-31T10:01:40;0.70;;;0.70;;
76439;SDS011;65274;44.982;20.060;2023-07-31T10:04:15;0.70;;;0.70;;
76439;SDS011;65274;44.982;20.060;2023-07-31T10:06:45;0.75;;;0.75;;
76439;SDS011;65274;44.982;20.060;2023-07-31T10:09:12;1.05;;;0.98;;
76439;SDS011;65274;44.982;20.060;2023-07-31T10:11:42;0.77;;;0.77;;
76439;SDS011;65274;44.982;20.060;2023-07-31T10:14:10;0.68;;;0.60;;
76439;SDS011;65274;44.982;20.060;2023-07-31T10:16:37;0.80;;;0.73;;
76439;SDS011;65274;44.982;20.060;2023-07-31T10:19:03;0.95;;;0.70;;
76439;SDS011;65274;44.982;20.060;2023-07-31T10:21:31;1.13;;;0.93;;
76439;SDS011;65274;44.982;20.060;2023-07-31T10:24:01;0.80;;;0.80;;
76439;SDS011;65274;44.982;20.060;2023-07-31T10:26:28;1.05;;;1.05;;
76439;SDS011;65274;44.982;20.060;2023-07-31T10:28:55;0.82;;;0.82;;
76439;SDS011;65274;44.982;20.060;2023-07-31T10:31:21;0.57;;;0.57;;
76439;SDS011;65274;44.982;20.060;2023-07-31T10:33:48;0.80;;;0.80;;
76439;SDS011;65274;44.982;20.060;2023-07-31T10:36:18;0.80;;;0.80;;
76439;SDS011;65274;44.982;20.060;2023-07-31T10:38:45;1.20;;;0.60;;
76439;SDS011;65274;44.982;20.060;2023-07-31T10:41:11;0.88;;;0.88;;
76439;SDS011;65274;44.982;20.060;2023-07-31T10:43:37;0.60;;;0.60;;
76439;SDS011;65274;44.982;20.060;2023-07-31T10:46:13;0.80;;;0.80;;
76439;SDS011;65274;44.982;20.060;2023-07-31T10:48:41;1.13;;;1.08;;
76439;SDS011;65274;44.982;20.060;2023-07-31T10:51:08;0.75;;;0.75;;
76439;SDS011;65274;44.982;20.060;2023-07-31T10:53:37;0.80;;;0.80;;
76439;SDS011;65274;44.982;20.060;2023-07-31T10:56:07;0.80;;;0.80;;
76439;SDS011;65274;44.982;20.060;2023-07-31T10:58:35;0.73;;;0.73;;
76439;SDS011;65274;44.982;20.060;2023-07-31T11:01:02;0.90;;;0.88;;
76439;SDS011;65274;44.982;20.060;2023-07-31T11:06:10;1.33;;;0.82;;
76439;SDS011;65274;44.982;20.060;2023-07-31T11:08:41;0.52;;;0.52;;
76439;SDS011;65274;44.982;20.060;2023-07-31T11:11:08;0.93;;;0.93;;
76439;SDS011;65274;44.982;20.060;2023-07-31T11:13:53;0.68;;;0.68;;
76439;SDS011;65274;44.982;20.060;2023-07-31T11:16:20;0.77;;;0.77;;
76439;SDS011;65274;44.982;20.060;2023-07-31T11:18:47;0.70;;;0.70;;
76439;SDS011;65274;44.982;20.060;2023-07-31T11:21:18;0.85;;;0.85;;
76439;SDS011;65274;44.982;20.060;2023-07-31T11:23:55;1.00;;;0.73;;
76439;SDS011;65274;44.982;20.060;2023-07-31T11:26:22;0.70;;;0.70;;
76439;SDS011;65274;44.982;20.060;2023-07-31T11:28:49;0.60;;;0.60;;
76439;SDS011;65274;44.982;20.060;2023-07-31T11:31:16;1.08;;;1.05;;
76439;SDS011;65274;44.982;20.060;2023-07-31T11:33:44;1.23;;;1.17;;
76439;SDS011;65274;44.982;20.060;2023-07-31T11:36:19;0.90;;;0.90;;
76439;SDS011;65274;44.982;20.060;2023-07-31T11:38:46;1.08;;;1.08;;
76439;SDS011;65274;44.982;20.060;2023-07-31T11:53:57;0.93;;;0.93;;
76439;SDS011;65274;44.982;20.060;2023-07-31T11:56:24;0.70;;;0.70;;
76439;SDS011;65274;44.982;20.060;2023-07-31T11:58:52;0.80;;;0.80;;
76439;SDS011;65274;44.982;20.060;2023-07-31T12:01:22;0.82;;;0.82;;
76439;SDS011;65274;44.982;20.060;2023-07-31T12:03:49;1.20;;;1.20;;
76439;SDS011;65274;44.982;20.060;2023-07-31T12:06:16;0.60;;;0.60;;
76439;SDS011;65274;44.982;20.060;2023-07-31T12:08:42;0.80;;;0.80;;
76439;SDS011;65274;44.982;20.060;2023-07-31T12:11:08;0.70;;;0.70;;
76439;SDS011;65274;44.982;20.060;2023-07-31T12:13:35;0.98;;;0.70;;
76439;SDS011;65274;44.982;20.060;2023-07-31T12:16:02;0.60;;;0.60;;
76439;SDS011;65274;44.982;20.060;2023-07-31T12:18:29;0.60;;;0.60;;
76439;SDS011;65274;44.982;20.060;2023-07-31T12:20:59;0.40;;;0.40;;
76439;SDS011;65274;44.982;20.060;2023-07-31T12:23:29;0.68;;;0.63;;
76439;SDS011;65274;44.982;20.060;2023-07-31T12:28:34;0.50;;;0.50;;
76439;SDS011;65274;44.982;20.060;2023-07-31T12:31:00;2.25;;;0.90;;
76439;SDS011;65274;44.982;20.060;2023-07-31T12:33:31;1.05;;;0.90;;
76439;SDS011;65274;44.982;20.060;2023-07-31T12:35:57;0.88;;;0.88;;
76439;SDS011;65274;44.982;20.060;2023-07-31T12:38:24;0.80;;;0.80;;
76439;SDS011;65274;44.982;20.060;2023-07-31T12:40:50;0.70;;;0.70;;
76439;SDS011;65274;44.982;20.060;2023-07-31T12:43:16;0.52;;;0.52;;
76439;SDS011;65274;44.982;20.060;2023-07-31T12:45:42;0.70;;;0.60;;
76439;SDS011;65274;44.982;20.060;2023-07-31T12:48:08;0.60;;;0.60;;
76439;SDS011;65274;44.982;20.060;2023-07-31T12:50:34;1.08;;;0.77;;
76439;SDS011;65274;44.982;20.060;2023-07-31T12:53:04;1.27;;;0.73;;
76439;SDS011;65274;44.982;20.060;2023-07-31T12:55:30;0.60;;;0.60;;
76439;SDS011;65274;44.982;20.060;2023-07-31T12:57:57;0.90;;;0.90;;
76439;SDS011;65274;44.982;20.060;2023-07-31T13:00:24;1.10;;;1.00;;
76439;SDS011;65274;44.982;20.060;2023-07-31T13:02:54;0.80;;;0.80;;
76439;SDS011;65274;44.982;20.060;2023-07-31T13:05:21;0.70;;;0.70;;
76439;SDS011;65274;44.982;20.060;2023-07-31T13:07:47;0.82;;;0.80;;
76439;SDS011;65274;44.982;20.060;2023-07-31T13:10:14;0.75;;;0.75;;
76439;SDS011;65274;44.982;20.060;2023-07-31T13:12:42;0.98;;;0.70;;
76439;SDS011;65274;44.982;20.060;2023-07-31T13:17:35;1.58;;;1.00;;
76439;SDS011;65274;44.982;20.060;2023-07-31T13:22:30;0.70;;;0.70;;
76439;SDS011;65274;44.982;20.060;2023-07-31T13:24:56;1.30;;;1.20;;
76439;SDS011;65274;44.982;20.060;2023-07-31T13:27:22;0.93;;;0.93;;
76439;SDS011;65274;44.982;20.060;2023-07-31T13:29:49;1.30;;;0.88;;
76439;SDS011;65274;44.982;20.060;2023-07-31T13:32:16;1.30;;;1.10;;
76439;SDS011;65274;44.982;20.060;2023-07-31T13:34:43;2.17;;;1.00;;
76439;SDS011;65274;44.982;20.060;2023-07-31T13:37:09;2.08;;;1.42;;
76439;SDS011;65274;44.982;20.060;2023-07-31T13:39:36;1.08;;;0.93;;
76439;SDS011;65274;44.982;20.060;2023-07-31T13:42:05;0.80;;;0.80;;
76439;SDS011;65274;44.982;20.060;2023-07-31T13:44:33;1.50;;;1.40;;
76439;SDS011;65274;44.982;20.060;2023-07-31T13:47:00;1.50;;;1.40;;
76439;SDS011;65274;44.982;20.060;2023-07-31T13:49:29;1.27;;;1.17;;
76439;SDS011;65274;44.982;20.060;2023-07-31T13:51:55;0.90;;;0.90;;
76439;SDS011;65274;44.982;20.060;2023-07-31T13:54:22;1.17;;;1.08;;
76439;SDS011;65274;44.982;20.060;2023-07-31T13:56:48;1.35;;;1.25;;
76439;SDS011;65274;44.982;20.060;2023-07-31T13:59:15;1.63;;;1.00;;
76439;SDS011;65274;44.982;20.060;2023-07-31T14:01:42;1.02;;;1.00;;
76439;SDS011;65274;44.982;20.060;2023-07-31T14:04:08;0.95;;;0.93;;
76439;SDS011;65274;44.982;20.060;2023-07-31T14:06:35;1.70;;;0.90;;
76439;SDS011;65274;44.982;20.060;2023-07-31T14:09:01;1.33;;;1.23;;
76439;SDS011;65274;44.982;20.060;2023-07-31T14:11:27;2.08;;;1.40;;
76439;SDS011;65274;44.982;20.060;2023-07-31T14:13:54;1.65;;;1.23;;
76439;SDS011;65274;44.982;20.060;2023-07-31T14:16:21;1.90;;;1.45;;
76439;SDS011;65274;44.982;20.060;2023-07-31T14:18:48;1.30;;;1.20;;
76439;SDS011;65274;44.982;20.060;2023-07-31T14:21:18;1.08;;;0.98;;
76439;SDS011;65274;44.982;20.060;2023-07-31T14:23:44;1.42;;;1.33;;
76439;SDS011;65274;44.982;20.060;2023-07-31T14:26:11;1.30;;;1.20;;
76439;SDS011;65274;44.982;20.060;2023-07-31T14:28:37;2.33;;;1.48;;
76439;SDS011;65274;44.982;20.060;2023-07-31T14:31:03;1.42;;;1.10;;
76439;SDS011;65274;44.982;20.060;2023-07-31T14:33:29;1.65;;;1.55;;
76439;SDS011;65274;44.982;20.060;2023-07-31T14:35:59;1.48;;;1.23;;
76439;SDS011;65274;44.982;20.060;2023-07-31T14:38:28;6.35;;;1.15;;
76439;SDS011;65274;44.982;20.060;2023-07-31T14:40:54;1.73;;;1.50;;
76439;SDS011;65274;44.982;20.060;2023-07-31T14:43:20;1.60;;;1.50;;
76439;SDS011;65274;44.982;20.060;2023-07-31T14:45:47;1.25;;;1.15;;
76439;SDS011;65274;44.982;20.060;2023-07-31T14:50:41;2.08;;;1.30;;
76439;SDS011;65274;44.982;20.060;2023-07-31T14:53:07;1.10;;;1.10;;
76439;SDS011;65274;44.982;20.060;2023-07-31T14:55:34;1.67;;;1.20;;
76439;SDS011;65274;44.982;20.060;2023-07-31T14:58:00;3.08;;;1.60;;
76439;SDS011;65274;44.982;20.060;2023-07-31T15:00:26;1.52;;;1.35;;
76439;SDS011;65274;44.982;20.060;2023-07-31T15:02:55;2.00;;;1.55;;
76439;SDS011;65274;44.982;20.060;2023-07-31T15:05:27;0.98;;;0.95;;
76439;SDS011;65274;44.982;20.060;2023-07-31T15:07:58;1.65;;;1.40;;
76439;SDS011;65274;44.982;20.060;2023-07-31T15:10:28;1.73;;;1.20;;
76439;SDS011;65274;44.982;20.060;2023-07-31T15:12:58;1.48;;;1.38;;
76439;SDS011;65274;44.982;20.060;2023-07-31T15:15:26;1.63;;;1.00;;
76439;SDS011;65274;44.982;20.060;2023-07-31T15:17:52;4.32;;;1.70;;
76439;SDS011;65274;44.982;20.060;2023-07-31T15:20:20;2.15;;;1.67;;
76439;SDS011;65274;44.982;20.060;2023-07-31T15:22:46;1.15;;;1.05;;
76439;SDS011;65274;44.982;20.060;2023-07-31T15:25:13;2.08;;;1.35;;
76439;SDS011;65274;44.982;20.060;2023-07-31T15:27:39;3.38;;;1.15;;
76439;SDS011;65274;44.982;20.060;2023-07-31T15:30:05;1.10;;;1.00;;